Ana Sayfa
METAR-TAF:

METAR-TAF

Havaalanları :

Pickens, Güney Carolina, Amerika Birleşik Devletleri

Enlem: 34-48-36N, Boylam: 082-42-10W, yükseklik: 309 m

Güncel hava durumu gözlemi

Rapor saat 09:35 UTC de 24 dakika önce yapıldı.
Rüzgar güneybatıdan 3 kt
Sıcaklık 15°C
Nem 100%
Basınç 1014 hPa
Görüş mesafesi: 16.1 km
Açık gökyüzü

METAR: KLQK 280935Z AUTO 22003KT 10SM CLR 15/15 A2993 RMK AO2 T01520152

Saat: 05:59 (09:59 UTC)


TAF: eksik

4.000'den fazla havaalanı için hava durumu gözlemleri ve tahminleri (METAR ve TAF raporları).

Kullanılabilir istasyonlar harita üzerinde sarı ve kırmızı noktalarla gösterilir.

İstasyonun adını görmek için fareyi noktanın üzerinde gezdirin.

Sonrasında hava gözlem ve tahminlerini görmek için tıklayın.

Haritayı değiştirmek için: yaklaştırmak için siyah artı işaretli yeşil düğmeye ve uzaklaştırmak için de eksi işaretli düğmeye hızla tıklayın; bitişik haritalar için yeşil okları kullanın.


METAR-TAF: